sensor_id;sensor_type;location;lat;lon;timestamp;pressure;altitude;pressure_sealevel;temperature;humidity
55424;BME280;41294;42.666;23.350;2023-02-12T00:00:33;95971.22;;;2.82;45.58
55424;BME280;41294;42.666;23.350;2023-02-12T00:02:58;95972.72;;;2.83;45.09
55424;BME280;41294;42.666;23.350;2023-02-12T00:05:24;95976.78;;;2.81;45.00
55424;BME280;41294;42.666;23.350;2023-02-12T00:07:49;95977.94;;;2.87;45.34
55424;BME280;41294;42.666;23.350;2023-02-12T00:10:15;95970.13;;;2.87;45.29
55424;BME280;41294;42.666;23.350;2023-02-12T00:12:41;95971.22;;;2.79;45.35
55424;BME280;41294;42.666;23.350;2023-02-12T00:15:07;95976.09;;;2.84;45.43
55424;BME280;41294;42.666;23.350;2023-02-12T00:17:32;95974.97;;;2.85;45.09
55424;BME280;41294;42.666;23.350;2023-02-12T00:19:58;95983.13;;;2.83;45.40
55424;BME280;41294;42.666;23.350;2023-02-12T00:22:23;95967.91;;;2.85;45.11
55424;BME280;41294;42.666;23.350;2023-02-12T00:24:48;95964.59;;;2.88;44.70
55424;BME280;41294;42.666;23.350;2023-02-12T00:27:14;95976.44;;;2.86;44.63
55424;BME280;41294;42.666;23.350;2023-02-12T00:29:39;95962.78;;;2.96;44.62
55424;BME280;41294;42.666;23.350;2023-02-12T00:32:05;95964.16;;;2.76;44.59
55424;BME280;41294;42.666;23.350;2023-02-12T00:34:30;95968.63;;;2.82;45.58
55424;BME280;41294;42.666;23.350;2023-02-12T00:36:56;95963.41;;;2.79;45.36
55424;BME280;41294;42.666;23.350;2023-02-12T00:39:21;95951.59;;;2.85;44.91
55424;BME280;41294;42.666;23.350;2023-02-12T00:41:46;95944.50;;;2.82;45.15
55424;BME280;41294;42.666;23.350;2023-02-12T00:44:12;95945.63;;;2.88;44.86
55424;BME280;41294;42.666;23.350;2023-02-12T00:46:37;95947.44;;;2.77;45.16
55424;BME280;41294;42.666;23.350;2023-02-12T00:49:02;95941.44;;;2.66;45.39
55424;BME280;41294;42.666;23.350;2023-02-12T00:51:28;95949.59;;;2.68;45.34
55424;BME280;41294;42.666;23.350;2023-02-12T00:53:53;95947.34;;;2.63;45.39
55424;BME280;41294;42.666;23.350;2023-02-12T00:56:19;95937.78;;;2.77;45.34
55424;BME280;41294;42.666;23.350;2023-02-12T00:58:44;95934.41;;;2.73;45.39
55424;BME280;41294;42.666;23.350;2023-02-12T01:01:10;95935.91;;;2.78;45.37
55424;BME280;41294;42.666;23.350;2023-02-12T01:03:35;95930.44;;;2.90;45.32
55424;BME280;41294;42.666;23.350;2023-02-12T01:06:01;95926.31;;;2.85;44.99
55424;BME280;41294;42.666;23.350;2023-02-12T01:08:26;95928.94;;;2.89;44.54
55424;BME280;41294;42.666;23.350;2023-02-12T01:10:57;95930.41;;;2.83;45.08
55424;BME280;41294;42.666;23.350;2023-02-12T01:13:23;95933.72;;;2.80;45.08
55424;BME280;41294;42.666;23.350;2023-02-12T01:16:00;95936.25;;;2.66;45.26
55424;BME280;41294;42.666;23.350;2023-02-12T01:18:26;95937.78;;;2.77;45.46
55424;BME280;41294;42.666;23.350;2023-02-12T01:20:51;95943.03;;;2.88;45.23
55424;BME280;41294;42.666;23.350;2023-02-12T01:23:16;95944.91;;;2.87;45.06
55424;BME280;41294;42.666;23.350;2023-02-12T01:25:42;95946.00;;;2.83;45.34
55424;BME280;41294;42.666;23.350;2023-02-12T01:28:09;95949.31;;;2.83;45.44
55424;BME280;41294;42.666;23.350;2023-02-12T01:30:35;95956.44;;;2.93;45.37
55424;BME280;41294;42.666;23.350;2023-02-12T01:33:00;95952.34;;;2.89;45.50
55424;BME280;41294;42.666;23.350;2023-02-12T01:35:26;95955.31;;;2.91;45.64
55424;BME280;41294;42.666;23.350;2023-02-12T01:37:51;95942.31;;;2.91;45.77
55424;BME280;41294;42.666;23.350;2023-02-12T01:40:17;95940.88;;;2.97;45.41
55424;BME280;41294;42.666;23.350;2023-02-12T01:42:43;95931.97;;;2.98;45.47
55424;BME280;41294;42.666;23.350;2023-02-12T01:47:42;95933.84;;;3.01;45.84
55424;BME280;41294;42.666;23.350;2023-02-12T01:50:12;95927.53;;;3.02;46.00
55424;BME280;41294;42.666;23.350;2023-02-12T01:52:43;95925.22;;;2.90;46.64
55424;BME280;41294;42.666;23.350;2023-02-12T01:55:10;95916.28;;;2.84;46.10
55424;BME280;41294;42.666;23.350;2023-02-12T01:57:40;95911.16;;;2.94;46.33
55424;BME280;41294;42.666;23.350;2023-02-12T02:00:12;95913.72;;;2.91;45.83
55424;BME280;41294;42.666;23.350;2023-02-12T02:02:39;95914.81;;;2.83;46.35
55424;BME280;41294;42.666;23.350;2023-02-12T02:05:06;95920.81;;;2.94;46.15
55424;BME280;41294;42.666;23.350;2023-02-12T02:07:32;95919.66;;;2.88;46.61
55424;BME280;41294;42.666;23.350;2023-02-12T02:09:57;95919.31;;;2.89;46.52
55424;BME280;41294;42.666;23.350;2023-02-12T02:12:24;95925.53;;;2.78;46.68
55424;BME280;41294;42.666;23.350;2023-02-12T02:15:10;95922.16;;;2.67;47.58
55424;BME280;41294;42.666;23.350;2023-02-12T02:17:45;95932.84;;;2.62;48.22
55424;BME280;41294;42.666;23.350;2023-02-12T02:35:40;95915.03;;;2.10;50.32
55424;BME280;41294;42.666;23.350;2023-02-12T02:37:39;95909.19;;;2.20;50.34
55424;BME280;41294;42.666;23.350;2023-02-12T02:40:19;95906.16;;;2.11;50.34
55424;BME280;41294;42.666;23.350;2023-02-12T02:43:00;95903.56;;;2.11;50.70
55424;BME280;41294;42.666;23.350;2023-02-12T02:45:33;95901.00;;;2.18;50.29
55424;BME280;41294;42.666;23.350;2023-02-12T02:50:43;95907.69;;;2.19;50.24
55424;BME280;41294;42.666;23.350;2023-02-12T02:53:17;95912.63;;;2.31;50.27
55424;BME280;41294;42.666;23.350;2023-02-12T02:55:50;95913.06;;;2.43;50.44
55424;BME280;41294;42.666;23.350;2023-02-12T02:58:24;95921.97;;;2.42;50.53
55424;BME280;41294;42.666;23.350;2023-02-12T03:05:54;95923.03;;;2.35;50.77
55424;BME280;41294;42.666;23.350;2023-02-12T03:08:28;95920.44;;;2.35;51.37
55424;BME280;41294;42.666;23.350;2023-02-12T03:11:14;95916.00;;;2.39;51.41
55424;BME280;41294;42.666;23.350;2023-02-12T03:13:48;95910.81;;;2.42;51.51
55424;BME280;41294;42.666;23.350;2023-02-12T03:16:20;95913.09;;;2.47;51.53
55424;BME280;41294;42.666;23.350;2023-02-12T03:18:55;95916.81;;;2.49;51.45
55424;BME280;41294;42.666;23.350;2023-02-12T03:21:28;95905.78;;;2.63;51.33
55424;BME280;41294;42.666;23.350;2023-02-12T03:24:04;95904.69;;;2.67;50.59
55424;BME280;41294;42.666;23.350;2023-02-12T03:26:55;95903.94;;;2.67;51.20
55424;BME280;41294;42.666;23.350;2023-02-12T03:29:22;95900.19;;;2.61;51.83
55424;BME280;41294;42.666;23.350;2023-02-12T03:31:59;95908.34;;;2.59;51.44
55424;BME280;41294;42.666;23.350;2023-02-12T03:37:10;95907.25;;;2.64;51.80
55424;BME280;41294;42.666;23.350;2023-02-12T03:39:54;95902.41;;;2.59;51.60
55424;BME280;41294;42.666;23.350;2023-02-12T03:45:00;95904.22;;;2.51;52.32
55424;BME280;41294;42.666;23.350;2023-02-12T03:47:45;95912.38;;;2.50;52.47
55424;BME280;41294;42.666;23.350;2023-02-12T03:50:18;95896.41;;;2.48;52.16
55424;BME280;41294;42.666;23.350;2023-02-12T03:52:49;95907.06;;;2.36;53.28
55424;BME280;41294;42.666;23.350;2023-02-12T03:55:15;95910.38;;;2.30;53.25
55424;BME280;41294;42.666;23.350;2023-02-12T03:57:45;95904.81;;;2.31;53.79
55424;BME280;41294;42.666;23.350;2023-02-12T04:00:18;95909.28;;;2.34;53.44
55424;BME280;41294;42.666;23.350;2023-02-12T04:02:44;95894.47;;;2.38;53.54
55424;BME280;41294;42.666;23.350;2023-02-12T04:05:19;95898.19;;;2.37;53.51
55424;BME280;41294;42.666;23.350;2023-02-12T04:07:44;95899.03;;;2.55;53.37
55424;BME280;41294;42.666;23.350;2023-02-12T04:10:10;95910.25;;;2.66;52.75
55424;BME280;41294;42.666;23.350;2023-02-12T04:12:53;95899.03;;;2.51;52.62
55424;BME280;41294;42.666;23.350;2023-02-12T04:18:19;95911.25;;;2.51;53.30
55424;BME280;41294;42.666;23.350;2023-02-12T04:21:03;95911.91;;;2.38;53.35
55424;BME280;41294;42.666;23.350;2023-02-12T04:23:45;95920.50;;;2.45;53.36
55424;BME280;41294;42.666;23.350;2023-02-12T04:26:20;95925.75;;;2.52;53.51
55424;BME280;41294;42.666;23.350;2023-02-12T04:28:58;95927.97;;;2.50;53.35
55424;BME280;41294;42.666;23.350;2023-02-12T04:36:48;95933.72;;;2.26;54.52
55424;BME280;41294;42.666;23.350;2023-02-12T04:39:23;95924.16;;;2.37;54.43
55424;BME280;41294;42.666;23.350;2023-02-12T04:41:50;95928.66;;;2.43;54.05
55424;BME280;41294;42.666;23.350;2023-02-12T04:44:24;95925.59;;;2.28;54.45
55424;BME280;41294;42.666;23.350;2023-02-12T04:46:50;95937.09;;;2.30;54.59
55424;BME280;41294;42.666;23.350;2023-02-12T04:49:18;95933.06;;;2.36;54.12
55424;BME280;41294;42.666;23.350;2023-02-12T04:51:44;95930.88;;;2.45;53.85
55424;BME280;41294;42.666;23.350;2023-02-12T04:54:10;95932.38;;;2.46;53.92
55424;BME280;41294;42.666;23.350;2023-02-12T04:56:36;95933.13;;;2.46;53.88
55424;BME280;41294;42.666;23.350;2023-02-12T04:59:01;95941.72;;;2.54;54.10
55424;BME280;41294;42.666;23.350;2023-02-12T05:01:27;95936.16;;;2.59;54.26
55424;BME280;41294;42.666;23.350;2023-02-12T05:03:52;95937.22;;;2.51;54.14
55424;BME280;41294;42.666;23.350;2023-02-12T05:06:18;95934.72;;;2.61;54.43
55424;BME280;41294;42.666;23.350;2023-02-12T05:08:43;95934.00;;;2.68;54.03
55424;BME280;41294;42.666;23.350;2023-02-12T05:11:09;95934.00;;;2.68;53.85
55424;BME280;41294;42.666;23.350;2023-02-12T05:13:36;95934.78;;;2.72;54.18
55424;BME280;41294;42.666;23.350;2023-02-12T05:16:06;95944.50;;;2.82;53.88
55424;BME280;41294;42.666;23.350;2023-02-12T05:18:32;95942.63;;;2.79;53.89
55424;BME280;41294;42.666;23.350;2023-02-12T05:21:00;95941.50;;;2.76;53.87
55424;BME280;41294;42.666;23.350;2023-02-12T05:23:30;95953.06;;;2.86;53.63
55424;BME280;41294;42.666;23.350;2023-02-12T05:26:00;95960.50;;;2.87;53.13
55424;BME280;41294;42.666;23.350;2023-02-12T05:28:27;95966.78;;;2.83;54.46
55424;BME280;41294;42.666;23.350;2023-02-12T05:30:52;95975.25;;;2.73;55.66
55424;BME280;41294;42.666;23.350;2023-02-12T05:33:17;95966.03;;;2.86;55.54
55424;BME280;41294;42.666;23.350;2023-02-12T05:35:43;95973.50;;;2.87;54.42
55424;BME280;41294;42.666;23.350;2023-02-12T05:38:09;95974.63;;;2.90;54.30
55424;BME280;41294;42.666;23.350;2023-02-12T05:40:34;95982.38;;;2.83;54.87
55424;BME280;41294;42.666;23.350;2023-02-12T05:43:00;95987.53;;;2.76;55.32
55424;BME280;41294;42.666;23.350;2023-02-12T05:45:26;95981.94;;;2.74;56.01
55424;BME280;41294;42.666;23.350;2023-02-12T05:47:54;95986.09;;;2.85;56.90
55424;BME280;41294;42.666;23.350;2023-02-12T05:50:19;95988.34;;;2.87;57.57
55424;BME280;41294;42.666;23.350;2023-02-12T05:52:45;95998.69;;;2.80;58.28
55424;BME280;41294;42.666;23.350;2023-02-12T05:55:10;95992.38;;;2.77;58.86
55424;BME280;41294;42.666;23.350;2023-02-12T05:57:35;95995.66;;;2.71;60.03
55424;BME280;41294;42.666;23.350;2023-02-12T06:00:03;95991.47;;;2.56;61.08
55424;BME280;41294;42.666;23.350;2023-02-12T06:02:28;95994.03;;;2.52;61.48
55424;BME280;41294;42.666;23.350;2023-02-12T06:04:54;95994.81;;;2.60;60.88
55424;BME280;41294;42.666;23.350;2023-02-12T06:07:19;95999.34;;;2.66;60.93
55424;BME280;41294;42.666;23.350;2023-02-12T06:09:45;95994.19;;;2.73;61.04
55424;BME280;41294;42.666;23.350;2023-02-12T06:12:11;95992.00;;;2.79;61.18
55424;BME280;41294;42.666;23.350;2023-02-12T06:14:36;96003.84;;;2.73;62.49
55424;BME280;41294;42.666;23.350;2023-02-12T06:17:01;95995.22;;;2.62;63.17
55424;BME280;41294;42.666;23.350;2023-02-12T06:19:27;96002.66;;;2.63;63.64
55424;BME280;41294;42.666;23.350;2023-02-12T06:21:52;96016.72;;;2.59;65.00
55424;BME280;41294;42.666;23.350;2023-02-12T06:24:18;96010.28;;;2.42;66.30
55424;BME280;41294;42.666;23.350;2023-02-12T06:26:44;96006.28;;;2.52;66.26
55424;BME280;41294;42.666;23.350;2023-02-12T06:29:09;96002.25;;;2.58;67.11
55424;BME280;41294;42.666;23.350;2023-02-12T06:31:36;96011.59;;;2.66;66.71
55424;BME280;41294;42.666;23.350;2023-02-12T06:34:04;96014.50;;;2.61;68.42
55424;BME280;41294;42.666;23.350;2023-02-12T06:36:31;96016.44;;;2.71;68.39
55424;BME280;41294;42.666;23.350;2023-02-12T06:38:56;96023.03;;;2.58;69.63
55424;BME280;41294;42.666;23.350;2023-02-12T06:41:22;96023.75;;;2.55;70.50
55424;BME280;41294;42.666;23.350;2023-02-12T06:43:48;96030.09;;;2.61;70.88
55424;BME280;41294;42.666;23.350;2023-02-12T06:46:13;96020.88;;;2.67;70.77
55424;BME280;41294;42.666;23.350;2023-02-12T06:48:39;96029.06;;;2.69;71.51
55424;BME280;41294;42.666;23.350;2023-02-12T06:51:07;96014.91;;;2.63;72.14
55424;BME280;41294;42.666;23.350;2023-02-12T06:53:33;96017.22;;;2.71;71.77
55424;BME280;41294;42.666;23.350;2023-02-12T06:56:07;96022.31;;;2.61;72.85
55424;BME280;41294;42.666;23.350;2023-02-12T06:58:42;96020.81;;;2.60;72.76
55424;BME280;41294;42.666;23.350;2023-02-12T07:01:16;96013.38;;;2.58;73.28
55424;BME280;41294;42.666;23.350;2023-02-12T07:03:49;96017.16;;;2.68;73.03
55424;BME280;41294;42.666;23.350;2023-02-12T07:06:16;96028.28;;;2.65;72.92
55424;BME280;41294;42.666;23.350;2023-02-12T07:08:41;96026.00;;;2.60;73.48
55424;BME280;41294;42.666;23.350;2023-02-12T07:11:07;96026.78;;;2.64;73.41
55424;BME280;41294;42.666;23.350;2023-02-12T07:13:33;96019.38;;;2.62;72.87
55424;BME280;41294;42.666;23.350;2023-02-12T07:16:13;96023.84;;;2.69;72.50
55424;BME280;41294;42.666;23.350;2023-02-12T07:18:39;96037.25;;;2.71;72.68
55424;BME280;41294;42.666;23.350;2023-02-12T07:21:05;96026.00;;;2.60;73.07
55424;BME280;41294;42.666;23.350;2023-02-12T07:23:32;96039.75;;;2.57;73.69
55424;BME280;41294;42.666;23.350;2023-02-12T07:25:59;96030.50;;;2.63;73.75
55424;BME280;41294;42.666;23.350;2023-02-12T07:28:26;96029.84;;;2.73;73.03
55424;BME280;41294;42.666;23.350;2023-02-12T07:30:52;96019.91;;;2.89;72.17
55424;BME280;41294;42.666;23.350;2023-02-12T07:33:17;96018.44;;;2.88;72.54
55424;BME280;41294;42.666;23.350;2023-02-12T07:35:43;96030.75;;;2.98;71.63
55424;BME280;41294;42.666;23.350;2023-02-12T07:38:08;96035.91;;;2.91;71.84
55424;BME280;41294;42.666;23.350;2023-02-12T07:40:34;96034.03;;;2.88;72.75
55424;BME280;41294;42.666;23.350;2023-02-12T07:43:00;96041.78;;;2.81;72.39
55424;BME280;41294;42.666;23.350;2023-02-12T07:45:25;96039.97;;;2.85;72.70
55424;BME280;41294;42.666;23.350;2023-02-12T07:47:50;96048.78;;;2.77;73.27
55424;BME280;41294;42.666;23.350;2023-02-12T07:50:16;96037.72;;;2.87;72.62
55424;BME280;41294;42.666;23.350;2023-02-12T07:52:42;96046.59;;;2.82;73.20
55424;BME280;41294;42.666;23.350;2023-02-12T07:55:07;96044.09;;;2.93;72.86
55424;BME280;41294;42.666;23.350;2023-02-12T07:57:36;96047.75;;;2.85;73.30
55424;BME280;41294;42.666;23.350;2023-02-12T08:00:03;96051.81;;;2.86;73.64
55424;BME280;41294;42.666;23.350;2023-02-12T08:02:28;96047.84;;;2.95;73.23
55424;BME280;41294;42.666;23.350;2023-02-12T08:04:55;96054.09;;;2.87;73.23
55424;BME280;41294;42.666;23.350;2023-02-12T08:07:21;96051.78;;;2.79;74.19
55424;BME280;41294;42.666;23.350;2023-02-12T08:09:46;96053.47;;;2.57;74.99
55424;BME280;41294;42.666;23.350;2023-02-12T08:12:11;96057.72;;;2.76;75.03
55424;BME280;41294;42.666;23.350;2023-02-12T08:14:37;96048.44;;;2.78;74.66
55424;BME280;41294;42.666;23.350;2023-02-12T08:17:02;96047.69;;;2.78;74.82
55424;BME280;41294;42.666;23.350;2023-02-12T08:19:28;96041.13;;;2.91;74.26
55424;BME280;41294;42.666;23.350;2023-02-12T08:21:54;96049.22;;;2.82;74.74
55424;BME280;41294;42.666;23.350;2023-02-12T08:24:20;96059.31;;;2.91;74.00
55424;BME280;41294;42.666;23.350;2023-02-12T08:26:49;96052.63;;;2.93;73.84
55424;BME280;41294;42.666;23.350;2023-02-12T08:29:17;96061.19;;;2.94;74.40
55424;BME280;41294;42.666;23.350;2023-02-12T08:31:45;96067.84;;;2.91;74.44
55424;BME280;41294;42.666;23.350;2023-02-12T08:34:22;96067.97;;;3.05;74.04
55424;BME280;41294;42.666;23.350;2023-02-12T08:36:50;96077.13;;;2.89;74.76
55424;BME280;41294;42.666;23.350;2023-02-12T08:39:17;96077.59;;;3.05;74.67
55424;BME280;41294;42.666;23.350;2023-02-12T08:41:43;96087.22;;;2.97;74.60
55424;BME280;41294;42.666;23.350;2023-02-12T08:44:09;96078.97;;;2.85;75.47
55424;BME280;41294;42.666;23.350;2023-02-12T08:46:38;96082.03;;;3.01;74.66
55424;BME280;41294;42.666;23.350;2023-02-12T08:49:11;96089.47;;;3.02;74.21
55424;BME280;41294;42.666;23.350;2023-02-12T08:51:41;96097.19;;;2.88;74.86
55424;BME280;41294;42.666;23.350;2023-02-12T08:54:10;96086.91;;;3.06;74.78
55424;BME280;41294;42.666;23.350;2023-02-12T08:56:36;96090.94;;;3.00;74.19
55424;BME280;41294;42.666;23.350;2023-02-12T08:59:03;96099.84;;;2.99;74.57
55424;BME280;41294;42.666;23.350;2023-02-12T09:01:31;96099.06;;;2.95;75.29
55424;BME280;41294;42.666;23.350;2023-02-12T09:03:57;96095.50;;;3.10;74.42
55424;BME280;41294;42.666;23.350;2023-02-12T09:06:24;96102.91;;;3.08;74.47
55424;BME280;41294;42.666;23.350;2023-02-12T09:08:51;96106.22;;;3.05;74.91
55424;BME280;41294;42.666;23.350;2023-02-12T09:11:27;96109.53;;;3.02;75.48
55424;BME280;41294;42.666;23.350;2023-02-12T09:14:02;96109.84;;;2.93;76.04
55424;BME280;41294;42.666;23.350;2023-02-12T09:16:30;96112.13;;;2.98;75.91
55424;BME280;41294;42.666;23.350;2023-02-12T09:18:56;96112.16;;;3.02;76.05
55424;BME280;41294;42.666;23.350;2023-02-12T09:21:22;96117.41;;;3.09;75.43
55424;BME280;41294;42.666;23.350;2023-02-12T09:23:48;96113.06;;;3.26;75.55
55424;BME280;41294;42.666;23.350;2023-02-12T09:26:17;96114.25;;;3.36;75.02
55424;BME280;41294;42.666;23.350;2023-02-12T09:28:45;96115.28;;;3.24;75.06
55424;BME280;41294;42.666;23.350;2023-02-12T09:31:14;96117.06;;;3.14;75.96
55424;BME280;41294;42.666;23.350;2023-02-12T09:33:40;96119.78;;;3.27;75.31
55424;BME280;41294;42.666;23.350;2023-02-12T09:36:11;96116.41;;;3.27;74.90
55424;BME280;41294;42.666;23.350;2023-02-12T09:38:37;96122.38;;;3.27;75.41
55424;BME280;41294;42.666;23.350;2023-02-12T09:46:22;96119.91;;;3.48;74.59
55424;BME280;41294;42.666;23.350;2023-02-12T09:51:33;96120.28;;;3.50;74.16
55424;BME280;41294;42.666;23.350;2023-02-12T09:54:14;96134.97;;;3.25;75.51
55424;BME280;41294;42.666;23.350;2023-02-12T09:59:42;96126.94;;;3.44;75.00
55424;BME280;41294;42.666;23.350;2023-02-12T10:02:17;96123.28;;;3.52;74.53
55424;BME280;41294;42.666;23.350;2023-02-12T10:04:44;96124.84;;;3.67;74.32
55424;BME280;41294;42.666;23.350;2023-02-12T10:10:22;96127.97;;;3.90;73.21
55424;BME280;41294;42.666;23.350;2023-02-12T10:12:59;96136.53;;;4.01;72.87
55424;BME280;41294;42.666;23.350;2023-02-12T10:21:05;96128.94;;;4.60;70.85
55424;BME280;41294;42.666;23.350;2023-02-12T10:26:39;96131.97;;;4.97;68.65
55424;BME280;41294;42.666;23.350;2023-02-12T10:29:14;96126.00;;;5.24;67.41
55424;BME280;41294;42.666;23.350;2023-02-12T10:31:44;96127.88;;;4.99;68.06
55424;BME280;41294;42.666;23.350;2023-02-12T10:34:20;96128.59;;;4.93;68.62
55424;BME280;41294;42.666;23.350;2023-02-12T10:36:48;96124.53;;;5.06;68.44
55424;BME280;41294;42.666;23.350;2023-02-12T10:39:27;96131.25;;;5.10;67.24
55424;BME280;41294;42.666;23.350;2023-02-12T10:42:01;96126.75;;;4.97;67.98
55424;BME280;41294;42.666;23.350;2023-02-12T10:44:30;96137.56;;;5.16;66.97
55424;BME280;41294;42.666;23.350;2023-02-12T10:46:55;96130.47;;;5.13;67.18
55424;BME280;41294;42.666;23.350;2023-02-12T10:49:21;96126.75;;;5.07;67.33
55424;BME280;41294;42.666;23.350;2023-02-12T10:51:57;96127.53;;;5.04;67.27
55424;BME280;41294;42.666;23.350;2023-02-12T10:54:43;96134.97;;;4.99;67.95
55424;BME280;41294;42.666;23.350;2023-02-12T10:59:42;96134.94;;;4.82;68.36
55424;BME280;41294;42.666;23.350;2023-02-12T11:02:24;96136.41;;;4.72;69.03
55424;BME280;41294;42.666;23.350;2023-02-12T11:04:52;96139.41;;;4.85;68.58
55424;BME280;41294;42.666;23.350;2023-02-12T11:07:18;96131.25;;;5.03;67.99
55424;BME280;41294;42.666;23.350;2023-02-12T11:09:46;96134.22;;;4.98;68.19
55424;BME280;41294;42.666;23.350;2023-02-12T11:12:20;96129.75;;;5.06;68.38
55424;BME280;41294;42.666;23.350;2023-02-12T11:14:59;96129.00;;;5.16;67.65
55424;BME280;41294;42.666;23.350;2023-02-12T11:17:31;96128.25;;;5.29;67.08
55424;BME280;41294;42.666;23.350;2023-02-12T11:22:55;96129.72;;;5.58;66.33
55424;BME280;41294;42.666;23.350;2023-02-12T11:25:23;96130.84;;;5.54;66.89
55424;BME280;41294;42.666;23.350;2023-02-12T11:30:26;96118.53;;;5.61;66.50
55424;BME280;41294;42.666;23.350;2023-02-12T11:32:52;96120.75;;;5.73;66.21
55424;BME280;41294;42.666;23.350;2023-02-12T11:35:24;96115.88;;;5.68;66.77
55424;BME280;41294;42.666;23.350;2023-02-12T11:37:58;96117.41;;;5.83;65.51
55424;BME280;41294;42.666;23.350;2023-02-12T11:40:30;96111.34;;;6.03;68.60
55424;BME280;41294;42.666;23.350;2023-02-12T11:43:00;96117.16;;;6.39;64.60
55424;BME280;41294;42.666;23.350;2023-02-12T11:45:40;96119.47;;;6.23;63.95
55424;BME280;41294;42.666;23.350;2023-02-12T11:48:20;96119.53;;;6.16;63.76
55424;BME280;41294;42.666;23.350;2023-02-12T11:50:48;96121.38;;;6.12;64.34
55424;BME280;41294;42.666;23.350;2023-02-12T11:53:28;96124.38;;;6.10;63.97
55424;BME280;41294;42.666;23.350;2023-02-12T11:56:05;96119.88;;;6.14;63.46
55424;BME280;41294;42.666;23.350;2023-02-12T11:58:32;96122.84;;;6.20;63.86
55424;BME280;41294;42.666;23.350;2023-02-12T12:06:40;96121.00;;;6.20;63.28
55424;BME280;41294;42.666;23.350;2023-02-12T12:15:00;96120.63;;;6.15;63.66
55424;BME280;41294;42.666;23.350;2023-02-12T12:20:40;96125.88;;;6.15;63.73
55424;BME280;41294;42.666;23.350;2023-02-12T12:23:24;96125.19;;;5.97;64.47
55424;BME280;41294;42.666;23.350;2023-02-12T12:26:07;96132.28;;;6.00;64.52
55424;BME280;41294;42.666;23.350;2023-02-12T12:28:49;96136.38;;;5.90;65.21
55424;BME280;41294;42.666;23.350;2023-02-12T12:33:52;96131.81;;;6.26;64.26
55424;BME280;41294;42.666;23.350;2023-02-12T12:49:33;96137.72;;;6.37;62.19
55424;BME280;41294;42.666;23.350;2023-02-12T12:52:20;96142.22;;;6.33;62.74
55424;BME280;41294;42.666;23.350;2023-02-12T13:00:34;96153.81;;;6.32;63.39
55424;BME280;41294;42.666;23.350;2023-02-12T13:13:45;96163.19;;;6.22;63.62
55424;BME280;41294;42.666;23.350;2023-02-12T13:16:32;96158.28;;;6.35;63.09
55424;BME280;41294;42.666;23.350;2023-02-12T13:19:08;96160.16;;;6.31;63.25
55424;BME280;41294;42.666;23.350;2023-02-12T13:24:24;96159.47;;;6.13;63.94
55424;BME280;41294;42.666;23.350;2023-02-12T13:26:59;96165.88;;;5.80;64.98
55424;BME280;41294;42.666;23.350;2023-02-12T13:32:05;96167.75;;;5.83;65.50
55424;BME280;41294;42.666;23.350;2023-02-12T13:34:34;96159.53;;;5.85;65.05
55424;BME280;41294;42.666;23.350;2023-02-12T13:37:02;96159.91;;;5.83;65.95
55424;BME280;41294;42.666;23.350;2023-02-12T13:39:37;96164.41;;;5.69;66.38
55424;BME280;41294;42.666;23.350;2023-02-12T13:44:46;96169.63;;;5.62;66.39
55424;BME280;41294;42.666;23.350;2023-02-12T13:47:33;96181.56;;;5.63;66.90
55424;BME280;41294;42.666;23.350;2023-02-12T13:50:05;96180.47;;;5.57;66.77
55424;BME280;41294;42.666;23.350;2023-02-12T13:55:37;96178.94;;;5.49;67.28
55424;BME280;41294;42.666;23.350;2023-02-12T14:01:07;96190.53;;;5.52;67.38
55424;BME280;41294;42.666;23.350;2023-02-12T14:03:35;96185.69;;;5.57;67.49
55424;BME280;41294;42.666;23.350;2023-02-12T14:06:08;96190.91;;;5.47;67.76
55424;BME280;41294;42.666;23.350;2023-02-12T14:08:38;96190.91;;;5.43;67.34
55424;BME280;41294;42.666;23.350;2023-02-12T14:11:16;96202.84;;;5.48;67.19
55424;BME280;41294;42.666;23.350;2023-02-12T14:14:02;96218.50;;;5.58;67.60
55424;BME280;41294;42.666;23.350;2023-02-12T14:21:58;96211.06;;;5.39;67.87
55424;BME280;41294;42.666;23.350;2023-02-12T14:27:15;96220.72;;;5.42;68.25
55424;BME280;41294;42.666;23.350;2023-02-12T14:38:03;96229.66;;;6.21;69.22
55424;BME280;41294;42.666;23.350;2023-02-12T14:40:48;96228.22;;;5.82;67.79
55424;BME280;41294;42.666;23.350;2023-02-12T14:43:33;96241.63;;;5.84;67.35
55424;BME280;41294;42.666;23.350;2023-02-12T14:51:43;96255.81;;;5.62;67.18
55424;BME280;41294;42.666;23.350;2023-02-12T14:54:18;96244.97;;;5.57;67.41
55424;BME280;41294;42.666;23.350;2023-02-12T14:56:47;96247.94;;;5.34;68.46
55424;BME280;41294;42.666;23.350;2023-02-12T14:59:19;96259.50;;;5.33;68.26
55424;BME280;41294;42.666;23.350;2023-02-12T15:01:46;96261.00;;;5.27;68.81
55424;BME280;41294;42.666;23.350;2023-02-12T15:04:23;96277.75;;;5.23;69.06
55424;BME280;41294;42.666;23.350;2023-02-12T15:06:54;96278.50;;;5.20;69.19
55424;BME280;41294;42.666;23.350;2023-02-12T15:09:31;96274.75;;;5.10;69.20
55424;BME280;41294;42.666;23.350;2023-02-12T15:12:25;96279.66;;;5.26;68.74
55424;BME280;41294;42.666;23.350;2023-02-12T15:15:04;96287.09;;;5.27;69.16
55424;BME280;41294;42.666;23.350;2023-02-12T15:17:33;96293.03;;;5.17;69.08
55424;BME280;41294;42.666;23.350;2023-02-12T15:20:18;96300.16;;;5.34;68.35
55424;BME280;41294;42.666;23.350;2023-02-12T15:22:45;96312.09;;;5.28;68.92
55424;BME280;41294;42.666;23.350;2023-02-12T15:27:47;96322.84;;;5.16;69.44
55424;BME280;41294;42.666;23.350;2023-02-12T15:30:15;96324.34;;;5.17;69.40
55424;BME280;41294;42.666;23.350;2023-02-12T15:32:41;96330.63;;;5.02;70.93
55424;BME280;41294;42.666;23.350;2023-02-12T15:35:24;96345.94;;;5.11;70.62
55424;BME280;41294;42.666;23.350;2023-02-12T15:37:51;96338.47;;;5.09;70.46
55424;BME280;41294;42.666;23.350;2023-02-12T15:40:17;96334.38;;;5.08;70.87
55424;BME280;41294;42.666;23.350;2023-02-12T15:42:57;96339.16;;;4.92;71.76
55424;BME280;41294;42.666;23.350;2023-02-12T15:45:28;96344.00;;;4.94;71.31
55424;BME280;41294;42.666;23.350;2023-02-12T15:48:21;96344.00;;;4.90;71.44